createdAt,value
2022-12-18T00:01:34.945Z,29.23
2022-12-18T00:04:09.445Z,28.57
2022-12-18T00:06:38.933Z,26.07
2022-12-18T00:09:07.125Z,29.47
2022-12-18T00:11:35.369Z,26.43
2022-12-18T00:14:03.473Z,28.13
2022-12-18T00:16:33.978Z,23.50
2022-12-18T00:21:56.375Z,27.87
2022-12-18T00:24:24.500Z,28.17
2022-12-18T00:26:52.547Z,26.97
2022-12-18T00:29:21.056Z,31.20
2022-12-18T00:31:49.930Z,28.33
2022-12-18T00:34:18.443Z,35.17
2022-12-18T00:36:49.326Z,27.50
2022-12-18T00:39:18.711Z,30.97
2022-12-18T00:42:04.547Z,26.63
2022-12-18T00:44:33.247Z,31.00
2022-12-18T00:47:01.337Z,24.90
2022-12-18T00:49:29.382Z,28.13
2022-12-18T00:51:57.437Z,31.47
2022-12-18T00:54:27.243Z,26.47
2022-12-18T00:56:56.113Z,33.17
2022-12-18T00:59:24.226Z,33.93
2022-12-18T01:01:52.603Z,33.27
2022-12-18T01:04:22.166Z,24.23
2022-12-18T01:06:51.150Z,32.63
2022-12-18T01:09:19.329Z,25.43
2022-12-18T01:11:48.701Z,25.00
2022-12-18T01:14:16.883Z,32.57
2022-12-18T01:16:45.011Z,28.97
2022-12-18T01:19:13.563Z,32.53
2022-12-18T01:21:41.634Z,30.40
2022-12-18T01:24:09.832Z,21.40
2022-12-18T01:26:37.945Z,25.00
2022-12-18T01:29:07.462Z,29.33
2022-12-18T01:31:36.283Z,24.43
2022-12-18T01:36:59.324Z,21.87
2022-12-18T01:39:27.814Z,21.13
2022-12-18T01:42:05.338Z,26.67
2022-12-18T01:45:00.047Z,22.40
2022-12-18T01:47:34.258Z,20.20
2022-12-18T01:50:06.327Z,20.90
2022-12-18T01:52:35.691Z,21.33
2022-12-18T01:55:06.987Z,23.50
2022-12-18T01:57:37.649Z,19.60
2022-12-18T02:00:11.473Z,25.87
2022-12-18T02:02:44.992Z,25.33
2022-12-18T02:05:18.460Z,31.40
2022-12-18T02:08:00.322Z,29.67
2022-12-18T02:10:34.277Z,20.63
2022-12-18T02:13:10.565Z,29.93
2022-12-18T02:15:48.877Z,21.33
2022-12-18T02:18:21.806Z,20.73
2022-12-18T02:20:57.892Z,22.73
2022-12-18T02:23:45.574Z,27.97
2022-12-18T02:26:21.237Z,27.60
2022-12-18T02:28:56.858Z,23.77
2022-12-18T02:31:29.403Z,17.97
2022-12-18T02:34:04.339Z,26.43
2022-12-18T02:36:41.375Z,26.50
2022-12-18T02:39:14.318Z,27.83
2022-12-18T02:41:52.615Z,25.03
2022-12-18T02:44:22.235Z,23.90
2022-12-18T02:46:53.761Z,24.77
2022-12-18T02:49:36.914Z,22.80
2022-12-18T02:52:37.004Z,26.20
2022-12-18T02:58:57.783Z,23.03
2022-12-18T03:01:41.142Z,32.73
2022-12-18T03:04:16.995Z,18.27
2022-12-18T03:06:49.542Z,20.67
2022-12-18T03:09:23.244Z,22.30
2022-12-18T03:12:18.147Z,24.60
2022-12-18T03:14:51.993Z,24.60
2022-12-18T03:17:24.206Z,20.83
2022-12-18T03:19:55.387Z,21.17
2022-12-18T03:22:26.275Z,25.90
2022-12-18T03:24:58.008Z,18.63
2022-12-18T03:27:28.172Z,23.40
2022-12-18T03:30:08.385Z,18.67
2022-12-18T03:32:45.119Z,24.00
2022-12-18T03:35:18.503Z,22.30
2022-12-18T03:37:46.853Z,22.90
2022-12-18T03:40:15.261Z,18.87
2022-12-18T03:42:51.252Z,20.57
2022-12-18T03:45:29.305Z,19.13
2022-12-18T03:48:06.239Z,20.60
2022-12-18T03:50:47.326Z,19.03
2022-12-18T03:53:28.458Z,15.93
2022-12-18T03:55:58.884Z,19.00
2022-12-18T03:58:34.908Z,20.90
2022-12-18T04:01:18.496Z,18.00
2022-12-18T04:03:50.469Z,17.20
2022-12-18T04:06:21.033Z,18.27
2022-12-18T04:08:49.783Z,29.53
2022-12-18T04:11:22.344Z,15.83
2022-12-18T04:13:50.514Z,16.37
2022-12-18T04:16:26.274Z,21.13
2022-12-18T04:18:57.764Z,19.93
2022-12-18T04:21:27.551Z,18.73
2022-12-18T04:23:55.696Z,22.80
2022-12-18T04:26:25.158Z,22.50
2022-12-18T04:29:03.069Z,20.10
2022-12-18T04:31:32.759Z,19.97
2022-12-18T04:34:01.051Z,21.70
2022-12-18T04:36:29.919Z,17.33
2022-12-18T04:38:58.012Z,20.10
2022-12-18T04:41:26.669Z,22.87
2022-12-18T04:43:55.801Z,20.90
2022-12-18T04:46:23.918Z,13.93
2022-12-18T04:48:53.353Z,24.93
2022-12-18T04:51:26.433Z,15.27
2022-12-18T04:53:55.297Z,16.77
2022-12-18T04:56:23.892Z,21.10
2022-12-18T04:58:52.034Z,18.43
2022-12-18T05:01:20.817Z,18.70
2022-12-18T05:03:49.064Z,20.77
2022-12-18T05:06:18.601Z,19.53
2022-12-18T05:08:46.716Z,26.17
2022-12-18T05:11:17.519Z,20.80
2022-12-18T05:13:46.157Z,21.60
2022-12-18T05:16:15.950Z,22.30
2022-12-18T05:18:44.795Z,23.30
2022-12-18T05:21:12.942Z,24.60
2022-12-18T05:23:42.912Z,24.23
2022-12-18T05:26:18.538Z,20.60
2022-12-18T05:28:46.840Z,17.93
2022-12-18T05:31:15.106Z,21.03
2022-12-18T05:33:43.895Z,23.17
2022-12-18T05:36:13.060Z,21.10
2022-12-18T05:38:43.343Z,20.70
2022-12-18T05:41:12.054Z,19.67
2022-12-18T05:43:42.098Z,24.53
2022-12-18T05:46:14.930Z,25.70
2022-12-18T05:48:43.106Z,17.57
2022-12-18T05:51:13.866Z,22.03
2022-12-18T05:53:44.548Z,20.70
2022-12-18T05:56:15.609Z,24.30
2022-12-18T05:58:43.855Z,22.30
2022-12-18T06:01:16.008Z,18.47
2022-12-18T06:03:44.956Z,22.33
2022-12-18T06:06:18.862Z,26.57
2022-12-18T06:08:48.658Z,25.67
2022-12-18T06:11:21.095Z,25.90
2022-12-18T06:13:57.859Z,21.93
2022-12-18T06:16:27.220Z,24.07
2022-12-18T06:18:57.605Z,28.27
2022-12-18T06:21:25.780Z,25.73
2022-12-18T06:23:55.166Z,27.87
2022-12-18T06:26:28.054Z,26.47
2022-12-18T06:28:56.908Z,23.77
2022-12-18T06:31:25.793Z,26.30
2022-12-18T06:33:54.091Z,23.40
2022-12-18T06:36:22.646Z,22.07
2022-12-18T06:38:50.911Z,23.00
2022-12-18T06:41:23.041Z,25.33
2022-12-18T06:43:53.546Z,20.77
2022-12-18T06:46:23.793Z,24.43
2022-12-18T06:48:53.724Z,23.50
2022-12-18T06:51:23.570Z,21.50
2022-12-18T06:53:52.061Z,17.60
2022-12-18T06:56:21.621Z,26.90
2022-12-18T06:58:52.945Z,19.60
2022-12-18T07:01:21.231Z,21.60
2022-12-18T07:03:53.285Z,20.67
2022-12-18T07:06:25.200Z,23.23
2022-12-18T07:08:55.256Z,25.03
2022-12-18T07:11:24.790Z,20.07
2022-12-18T07:13:54.663Z,24.13
2022-12-18T07:16:25.575Z,18.00
2022-12-18T07:18:54.581Z,22.37
2022-12-18T07:21:23.762Z,22.17
2022-12-18T07:23:52.253Z,18.80
2022-12-18T07:26:22.809Z,19.70
2022-12-18T07:28:52.746Z,21.73
2022-12-18T07:31:23.585Z,19.10
2022-12-18T07:33:53.002Z,20.13
2022-12-18T07:36:25.106Z,20.23
2022-12-18T07:38:53.914Z,15.33
2022-12-18T07:41:22.671Z,18.00
2022-12-18T07:43:52.168Z,23.37
2022-12-18T07:46:20.581Z,16.17
2022-12-18T07:48:49.797Z,18.90
2022-12-18T07:51:19.520Z,19.50
2022-12-18T07:53:49.756Z,17.33
2022-12-18T07:56:29.622Z,22.27
2022-12-18T07:59:01.255Z,21.23
2022-12-18T08:01:29.676Z,22.10
2022-12-18T08:03:59.044Z,17.63
2022-12-18T08:06:27.541Z,20.27
2022-12-18T08:08:56.688Z,18.87
2022-12-18T08:11:26.910Z,19.47
2022-12-18T08:13:55.342Z,19.87
2022-12-18T08:16:26.169Z,19.07
2022-12-18T08:18:55.700Z,20.67
2022-12-18T08:21:27.241Z,19.27
2022-12-18T08:23:57.596Z,22.73
2022-12-18T08:26:27.879Z,18.23
2022-12-18T08:28:56.679Z,19.70
2022-12-18T08:31:27.928Z,16.63
2022-12-18T08:33:56.690Z,19.20
2022-12-18T08:36:25.488Z,18.80
2022-12-18T08:38:54.674Z,19.10
2022-12-18T08:41:23.467Z,20.77
2022-12-18T08:44:09.335Z,21.80
2022-12-18T08:46:41.643Z,21.50
2022-12-18T08:49:11.103Z,21.20
2022-12-18T08:51:39.970Z,20.03
2022-12-18T08:54:08.825Z,19.63
2022-12-18T08:56:37.101Z,19.87
2022-12-18T08:59:05.857Z,17.23
2022-12-18T09:01:36.605Z,23.00
2022-12-18T09:04:07.602Z,23.47
2022-12-18T09:06:36.578Z,18.03
2022-12-18T09:09:06.565Z,20.17
2022-12-18T09:11:36.189Z,22.63
2022-12-18T09:14:04.402Z,19.50
2022-12-18T09:16:35.765Z,17.97
2022-12-18T09:19:06.665Z,22.60
2022-12-18T09:21:37.395Z,22.67
2022-12-18T09:24:09.134Z,21.73
2022-12-18T09:26:37.736Z,21.40
2022-12-18T09:29:08.009Z,20.50
2022-12-18T09:31:36.911Z,21.70
2022-12-18T09:34:11.632Z,22.70
2022-12-18T09:36:40.339Z,19.73
2022-12-18T09:39:09.067Z,21.33
2022-12-18T09:41:47.813Z,18.83
2022-12-18T09:44:32.518Z,20.33
2022-12-18T09:47:12.763Z,20.17
2022-12-18T09:49:45.876Z,21.00
2022-12-18T09:52:21.525Z,20.20
2022-12-18T09:54:55.522Z,20.57
2022-12-18T09:57:26.526Z,21.57
2022-12-18T09:59:59.011Z,19.83
2022-12-18T10:02:32.155Z,19.97
2022-12-18T10:05:09.897Z,17.30
2022-12-18T10:07:57.375Z,25.43
2022-12-18T10:10:44.957Z,17.03
2022-12-18T10:13:26.962Z,21.73
2022-12-18T10:16:10.648Z,21.70
2022-12-18T10:19:03.568Z,22.70
2022-12-18T10:21:43.382Z,18.70
2022-12-18T10:24:25.594Z,20.43
2022-12-18T10:26:57.745Z,18.90
2022-12-18T10:29:27.646Z,22.40
2022-12-18T10:31:55.685Z,19.83
2022-12-18T10:34:23.708Z,22.40
2022-12-18T10:36:53.546Z,22.57
2022-12-18T10:39:24.249Z,22.93
2022-12-18T10:41:52.660Z,25.30
2022-12-18T10:44:23.405Z,20.03
2022-12-18T10:46:56.931Z,21.63
2022-12-18T10:49:28.077Z,19.57
2022-12-18T10:52:16.035Z,21.40
2022-12-18T10:54:53.394Z,18.37
2022-12-18T10:57:36.615Z,23.23
2022-12-18T11:00:26.793Z,19.23
2022-12-18T11:02:56.616Z,21.63
2022-12-18T11:05:30.032Z,20.07
2022-12-18T11:08:00.646Z,18.90
2022-12-18T11:10:34.001Z,19.83
2022-12-18T11:13:18.681Z,20.30
2022-12-18T11:15:47.974Z,17.93
2022-12-18T11:18:23.907Z,22.73
2022-12-18T11:20:58.950Z,19.67
2022-12-18T11:23:29.629Z,21.33
2022-12-18T11:26:01.417Z,24.27
2022-12-18T11:28:37.762Z,22.23
2022-12-18T11:31:24.330Z,20.37
2022-12-18T11:34:27.945Z,21.53
2022-12-18T11:36:55.280Z,22.60
2022-12-18T11:39:40.195Z,21.43
2022-12-18T11:42:16.390Z,19.73
2022-12-18T11:44:50.704Z,17.17
2022-12-18T11:47:31.239Z,20.13
2022-12-18T11:50:04.102Z,19.10
2022-12-18T11:52:38.167Z,21.07
2022-12-18T11:55:16.125Z,22.10
2022-12-18T11:57:55.126Z,21.97
2022-12-18T12:00:24.515Z,22.00
2022-12-18T12:03:24.414Z,20.20
2022-12-18T12:06:10.069Z,19.00
2022-12-18T12:08:58.298Z,22.60
2022-12-18T12:11:38.863Z,20.63
2022-12-18T12:14:25.425Z,16.87
2022-12-18T12:16:59.272Z,16.23
2022-12-18T12:19:40.248Z,18.83
2022-12-18T12:22:19.603Z,21.53
2022-12-18T12:25:04.670Z,18.17
2022-12-18T12:27:45.003Z,24.43
2022-12-18T12:30:21.782Z,18.33
2022-12-18T12:33:09.663Z,25.07
2022-12-18T12:35:51.160Z,19.67
2022-12-18T12:38:26.273Z,20.87
2022-12-18T12:41:03.218Z,18.10
2022-12-18T12:43:46.248Z,19.90
2022-12-18T12:46:22.705Z,23.17
2022-12-18T12:48:54.989Z,19.43
2022-12-18T12:51:26.984Z,23.07
2022-12-18T12:53:58.409Z,21.30
2022-12-18T12:56:40.651Z,19.70
2022-12-18T12:59:19.132Z,22.27
2022-12-18T13:01:56.825Z,25.10
2022-12-18T13:07:37.912Z,23.13
2022-12-18T13:10:33.037Z,21.60
2022-12-18T13:13:02.750Z,25.60
2022-12-18T13:15:40.262Z,19.80
2022-12-18T13:18:21.721Z,22.43
2022-12-18T13:20:56.433Z,20.33
2022-12-18T13:23:37.281Z,23.13
2022-12-18T13:26:35.115Z,20.40
2022-12-18T13:29:05.288Z,18.70
2022-12-18T13:32:23.344Z,20.43
2022-12-18T13:35:43.250Z,22.83
2022-12-18T13:38:24.069Z,21.20
2022-12-18T13:40:58.376Z,21.37
2022-12-18T13:43:38.010Z,24.50
2022-12-18T13:46:23.614Z,23.20
2022-12-18T13:49:01.232Z,23.80
2022-12-18T13:51:31.701Z,25.47
2022-12-18T13:54:03.283Z,23.03
2022-12-18T13:56:34.369Z,25.07
2022-12-18T13:59:14.829Z,21.80
2022-12-18T14:01:49.826Z,23.20
2022-12-18T14:04:31.426Z,25.50
2022-12-18T14:07:05.603Z,23.17
2022-12-18T14:09:40.539Z,21.50
2022-12-18T14:12:36.766Z,25.37
2022-12-18T14:15:15.264Z,21.57
2022-12-18T14:17:44.882Z,23.00
2022-12-18T14:20:17.797Z,24.07
2022-12-18T14:22:47.613Z,24.70
2022-12-18T14:25:23.086Z,23.90
2022-12-18T14:27:55.680Z,25.27
2022-12-18T14:30:32.892Z,28.33
2022-12-18T14:33:06.162Z,22.87
2022-12-18T14:35:38.561Z,23.00
2022-12-18T14:38:27.617Z,23.27
2022-12-18T14:40:58.740Z,23.77
2022-12-18T14:43:27.892Z,25.73
2022-12-18T14:45:57.007Z,22.30
2022-12-18T14:48:38.586Z,25.20
2022-12-18T14:51:18.558Z,24.50
2022-12-18T14:53:54.316Z,25.47
2022-12-18T14:56:25.948Z,23.67
2022-12-18T14:58:57.851Z,24.77
2022-12-18T15:01:32.574Z,24.80
2022-12-18T15:04:08.191Z,23.57
2022-12-18T15:06:40.813Z,24.30
2022-12-18T15:09:25.693Z,28.47
2022-12-18T15:11:59.645Z,28.20
2022-12-18T15:14:37.688Z,30.97
2022-12-18T15:17:08.786Z,24.67
2022-12-18T15:19:42.434Z,52.40
2022-12-18T15:22:23.755Z,54.10
2022-12-18T15:24:52.319Z,41.50
2022-12-18T15:27:27.865Z,35.90
2022-12-18T15:30:26.012Z,36.33
2022-12-18T15:33:14.856Z,32.47
2022-12-18T15:35:46.923Z,28.57
2022-12-18T15:38:17.205Z,31.80
2022-12-18T15:40:45.260Z,31.83
2022-12-18T15:43:30.979Z,29.53
2022-12-18T15:45:59.062Z,25.83
2022-12-18T15:48:27.153Z,28.93
2022-12-18T15:50:59.456Z,25.23
2022-12-18T15:53:34.583Z,22.67
2022-12-18T15:56:20.394Z,25.20
2022-12-18T15:58:48.676Z,24.33
2022-12-18T16:01:18.146Z,23.57
2022-12-18T16:03:46.568Z,23.57
2022-12-18T16:06:14.636Z,22.73
2022-12-18T16:08:44.045Z,29.80
2022-12-18T16:11:39.197Z,20.87
2022-12-18T16:14:17.584Z,26.43
2022-12-18T16:16:46.431Z,22.10
2022-12-18T16:19:14.513Z,19.20
2022-12-18T16:21:42.673Z,27.70
2022-12-18T16:24:21.553Z,29.40
2022-12-18T16:26:52.180Z,26.47
2022-12-18T16:29:27.742Z,26.43
2022-12-18T16:31:56.219Z,25.23
2022-12-18T16:34:28.571Z,23.10
2022-12-18T16:37:04.646Z,28.63
2022-12-18T16:39:35.583Z,24.83
2022-12-18T16:42:05.806Z,23.97
2022-12-18T16:44:34.753Z,26.57
2022-12-18T16:47:04.561Z,25.37
2022-12-18T16:49:33.382Z,29.23
2022-12-18T16:52:05.073Z,29.40
2022-12-18T16:54:35.117Z,27.43
2022-12-18T16:57:03.481Z,27.17
2022-12-18T16:59:31.989Z,27.47
2022-12-18T17:02:00.326Z,28.13
2022-12-18T17:04:28.582Z,29.17
2022-12-18T17:06:56.701Z,27.43
2022-12-18T17:09:25.985Z,25.83
2022-12-18T17:11:56.382Z,27.50
2022-12-18T17:14:25.904Z,24.03
2022-12-18T17:17:19.820Z,29.93
2022-12-18T17:19:42.599Z,34.30
2022-12-18T17:22:10.661Z,27.10
2022-12-18T17:24:38.772Z,24.80
2022-12-18T17:27:08.849Z,25.37
2022-12-18T17:29:40.091Z,26.67
2022-12-18T17:32:11.847Z,28.77
2022-12-18T17:34:41.893Z,28.87
2022-12-18T17:37:10.353Z,22.37
2022-12-18T17:39:38.679Z,26.20
2022-12-18T17:42:10.607Z,29.47
2022-12-18T17:44:43.409Z,27.00
2022-12-18T17:47:12.838Z,24.90
2022-12-18T17:49:41.064Z,23.37
2022-12-18T17:52:09.780Z,24.10
2022-12-18T17:54:41.286Z,27.70
2022-12-18T17:57:11.622Z,23.27
2022-12-18T17:59:39.740Z,23.50
2022-12-18T18:02:08.647Z,25.17
2022-12-18T18:04:37.088Z,24.73
2022-12-18T18:07:05.184Z,28.27
2022-12-18T18:09:33.340Z,30.27
2022-12-18T18:12:18.801Z,28.07
2022-12-18T18:14:48.241Z,23.53
2022-12-18T18:17:16.366Z,31.73
2022-12-18T18:19:49.593Z,24.37
2022-12-18T18:22:18.709Z,27.53
2022-12-18T18:24:47.791Z,28.27
2022-12-18T18:27:16.713Z,27.97
2022-12-18T18:29:44.955Z,30.37
2022-12-18T18:32:14.372Z,29.83
2022-12-18T18:34:42.712Z,26.67
2022-12-18T18:37:12.132Z,30.10
2022-12-18T18:39:40.642Z,29.30
2022-12-18T18:42:08.783Z,26.13
2022-12-18T18:44:36.955Z,26.77
2022-12-18T18:47:07.665Z,26.57
2022-12-18T18:49:38.932Z,28.53
2022-12-18T18:52:08.106Z,25.67
2022-12-18T18:54:37.093Z,28.67
2022-12-18T18:57:23.392Z,26.47
2022-12-18T18:59:53.311Z,28.97
2022-12-18T19:02:21.562Z,26.33
2022-12-18T19:04:51.118Z,32.77
2022-12-18T19:07:29.448Z,31.67
2022-12-18T19:10:03.519Z,27.80
2022-12-18T19:12:52.459Z,28.50
2022-12-18T19:15:21.573Z,32.73
2022-12-18T19:17:49.867Z,30.07
2022-12-18T19:20:19.785Z,31.50
2022-12-18T19:22:54.948Z,29.43
2022-12-18T19:25:40.460Z,28.87
2022-12-18T19:28:22.132Z,32.70
2022-12-18T19:30:55.369Z,36.87
2022-12-18T19:33:45.034Z,30.50
2022-12-18T19:36:20.199Z,34.10
2022-12-18T19:38:48.883Z,30.50
2022-12-18T19:41:18.841Z,31.53
2022-12-18T19:43:48.354Z,30.37
2022-12-18T19:46:19.324Z,26.17
2022-12-18T19:48:49.177Z,29.13
2022-12-18T19:51:22.312Z,35.00
2022-12-18T19:53:57.856Z,27.57
2022-12-18T19:56:30.899Z,31.50
2022-12-18T19:58:59.526Z,32.13
2022-12-18T20:01:29.224Z,31.10
2022-12-18T20:03:58.826Z,29.13
2022-12-18T20:06:31.484Z,36.07
2022-12-18T20:09:02.229Z,27.63
2022-12-18T20:11:31.009Z,32.60
2022-12-18T20:14:02.678Z,29.77
2022-12-18T20:16:30.952Z,31.73
2022-12-18T20:19:00.090Z,30.90
2022-12-18T20:21:29.793Z,28.87
2022-12-18T20:23:59.877Z,34.83
2022-12-18T20:26:28.530Z,33.43
2022-12-18T20:28:57.098Z,30.07
2022-12-18T20:31:26.937Z,34.30
2022-12-18T20:34:00.340Z,35.70
2022-12-18T20:36:33.024Z,32.10
2022-12-18T20:39:03.852Z,30.67
2022-12-18T20:41:33.518Z,33.77
2022-12-18T20:44:18.004Z,33.50
2022-12-18T20:46:54.385Z,31.93
2022-12-18T20:49:23.684Z,27.07
2022-12-18T20:51:56.331Z,28.83
2022-12-18T20:54:28.159Z,30.50
2022-12-18T20:56:56.976Z,29.37
2022-12-18T20:59:26.160Z,34.10
2022-12-18T21:01:54.705Z,29.37
2022-12-18T21:04:23.391Z,35.37
2022-12-18T21:07:01.902Z,33.40
2022-12-18T21:09:37.457Z,31.67
2022-12-18T21:12:29.729Z,34.60
2022-12-18T21:15:02.390Z,28.83
2022-12-18T21:17:30.515Z,29.33
2022-12-18T21:20:02.846Z,32.00
2022-12-18T21:22:32.505Z,31.20
2022-12-18T21:25:00.554Z,27.17
2022-12-18T21:27:28.663Z,32.20
2022-12-18T21:29:56.808Z,35.73
2022-12-18T21:32:25.005Z,30.17
2022-12-18T21:34:57.202Z,32.90
2022-12-18T21:37:25.245Z,30.27
2022-12-18T21:39:54.719Z,29.13
2022-12-18T21:42:40.263Z,35.13
2022-12-18T21:45:12.096Z,29.43
2022-12-18T21:47:40.158Z,28.73
2022-12-18T21:50:09.080Z,28.10
2022-12-18T21:52:37.548Z,28.40
2022-12-18T21:55:10.165Z,33.27
2022-12-18T21:57:42.485Z,30.80
2022-12-18T22:00:18.654Z,28.80
2022-12-18T22:02:59.926Z,31.77
2022-12-18T22:05:36.314Z,30.10
2022-12-18T22:08:04.571Z,29.97
2022-12-18T22:10:34.708Z,32.57
2022-12-18T22:13:02.915Z,32.53
2022-12-18T22:15:31.106Z,32.43
2022-12-18T22:17:59.762Z,32.80
2022-12-18T22:20:29.815Z,30.60
2022-12-18T22:22:58.558Z,30.13
2022-12-18T22:25:26.801Z,32.70
2022-12-18T22:28:13.599Z,29.80
2022-12-18T22:30:41.770Z,31.27
2022-12-18T22:33:09.877Z,28.23
2022-12-18T22:35:37.963Z,29.17
2022-12-18T22:38:06.564Z,27.13
2022-12-18T22:40:34.865Z,30.73
2022-12-18T22:43:04.536Z,28.10
2022-12-18T22:45:32.673Z,27.57
2022-12-18T22:48:03.743Z,30.57
2022-12-18T22:50:33.620Z,34.63
2022-12-18T22:53:01.677Z,29.23
2022-12-18T22:55:29.742Z,31.57
2022-12-18T22:57:57.847Z,28.87
2022-12-18T23:00:27.591Z,31.77
2022-12-18T23:03:00.446Z,28.40
2022-12-18T23:05:31.107Z,25.90
2022-12-18T23:08:00.045Z,29.43
2022-12-18T23:10:54.038Z,27.53
2022-12-18T23:13:22.147Z,28.53
2022-12-18T23:15:51.605Z,27.43
2022-12-18T23:18:19.679Z,28.33
2022-12-18T23:20:48.417Z,29.23
2022-12-18T23:23:16.959Z,26.37
2022-12-18T23:25:45.074Z,28.73
2022-12-18T23:28:14.583Z,27.03
2022-12-18T23:30:42.631Z,32.10
2022-12-18T23:33:12.005Z,25.77
2022-12-18T23:35:40.445Z,27.93
2022-12-18T23:38:08.496Z,26.63
2022-12-18T23:40:36.565Z,33.03
2022-12-18T23:43:04.648Z,31.07
2022-12-18T23:45:32.665Z,27.60
2022-12-18T23:48:00.806Z,31.07
2022-12-18T23:50:30.377Z,25.27
2022-12-18T23:53:05.118Z,29.97
2022-12-18T23:55:45.568Z,28.10
2022-12-18T23:58:19.849Z,33.77
